createdAt,value
2018-02-07T00:01:03.274Z,62.73
2018-02-07T00:03:31.648Z,63.08
2018-02-07T00:06:00.877Z,62.89
2018-02-07T00:08:31.259Z,63.06
2018-02-07T00:11:00.422Z,62.66
2018-02-07T00:13:28.829Z,62.43
2018-02-07T00:15:57.156Z,62.91
2018-02-07T00:18:25.503Z,63.00
2018-02-07T00:20:53.819Z,62.43
2018-02-07T00:23:22.185Z,62.86
2018-02-07T00:25:51.311Z,62.97
2018-02-07T00:28:19.618Z,63.82
2018-02-07T00:30:48.344Z,63.54
2018-02-07T00:33:16.679Z,63.40
2018-02-07T00:35:44.991Z,63.64
2018-02-07T00:38:13.336Z,63.77
2018-02-07T00:40:41.717Z,63.87
2018-02-07T00:43:10.063Z,63.49
2018-02-07T00:45:38.412Z,64.12
2018-02-07T00:48:06.763Z,63.69
2018-02-07T00:50:35.302Z,63.63
2018-02-07T00:53:04.456Z,63.58
2018-02-07T00:55:32.769Z,63.85
2018-02-07T00:58:01.105Z,63.69
2018-02-07T01:00:29.487Z,63.44
2018-02-07T01:02:58.134Z,63.63
2018-02-07T01:05:26.577Z,63.46
2018-02-07T01:07:55.713Z,62.97
2018-02-07T01:10:24.136Z,64.36
2018-02-07T01:12:52.475Z,63.84
2018-02-07T01:15:21.204Z,63.66
2018-02-07T01:17:49.576Z,64.23
2018-02-07T01:20:17.908Z,63.94
2018-02-07T01:22:46.332Z,64.42
2018-02-07T01:25:14.711Z,65.06
2018-02-07T01:27:43.192Z,65.08
2018-02-07T01:30:11.537Z,64.94
2018-02-07T01:32:39.836Z,64.89
2018-02-07T01:35:08.158Z,64.81
2018-02-07T01:37:37.347Z,64.51
2018-02-07T01:40:05.656Z,64.47
2018-02-07T01:42:33.965Z,64.72
2018-02-07T01:45:02.779Z,64.84
2018-02-07T01:47:31.090Z,65.09
2018-02-07T01:50:00.187Z,65.17
2018-02-07T01:52:28.769Z,65.10
2018-02-07T01:54:57.086Z,65.18
2018-02-07T01:57:25.389Z,65.67
2018-02-07T01:59:53.816Z,65.37
2018-02-07T02:02:22.924Z,66.43
2018-02-07T02:04:51.270Z,65.89
2018-02-07T02:07:19.697Z,65.78
2018-02-07T02:09:48.115Z,65.93
2018-02-07T02:12:16.490Z,65.83
2018-02-07T02:14:44.982Z,65.78
2018-02-07T02:17:13.360Z,65.85
2018-02-07T02:19:41.704Z,65.69
2018-02-07T02:22:10.223Z,66.22
2018-02-07T02:24:38.589Z,66.58
2018-02-07T02:27:07.078Z,65.76
2018-02-07T02:29:35.561Z,66.02
2018-02-07T02:32:03.942Z,66.09
2018-02-07T02:34:32.323Z,66.84
2018-02-07T02:37:00.794Z,66.63
2018-02-07T02:39:29.992Z,67.33
2018-02-07T02:41:58.452Z,67.69
2018-02-07T02:44:27.203Z,67.14
2018-02-07T02:46:56.438Z,66.83
2018-02-07T02:49:24.970Z,67.44
2018-02-07T02:51:53.401Z,67.62
2018-02-07T02:54:22.223Z,67.12
2018-02-07T02:56:50.611Z,67.33
2018-02-07T02:59:19.067Z,67.55
2018-02-07T03:01:47.407Z,67.35
2018-02-07T03:04:15.736Z,67.23
2018-02-07T03:06:44.528Z,67.02
2018-02-07T03:09:12.982Z,67.35
2018-02-07T03:11:41.389Z,66.76
2018-02-07T03:14:09.729Z,66.82
2018-02-07T03:16:38.123Z,67.44
2018-02-07T03:19:06.456Z,67.38
2018-02-07T03:21:34.849Z,66.92
2018-02-07T03:24:03.370Z,67.75
2018-02-07T03:26:32.587Z,67.59
2018-02-07T03:29:01.396Z,68.22
2018-02-07T03:31:30.677Z,67.93
2018-02-07T03:33:59.128Z,68.31
2018-02-07T03:36:27.557Z,68.25
2018-02-07T03:38:55.924Z,68.27
2018-02-07T03:41:24.344Z,68.20
2018-02-07T03:43:53.047Z,68.04
2018-02-07T03:46:21.469Z,67.75
2018-02-07T03:48:49.861Z,67.96
2018-02-07T03:51:19.765Z,67.41
2018-02-07T03:53:48.244Z,66.30
2018-02-07T03:56:16.623Z,67.06
2018-02-07T03:58:45.104Z,66.92
2018-02-07T04:01:13.560Z,66.80
2018-02-07T04:03:41.966Z,66.18
2018-02-07T04:06:10.441Z,66.42
2018-02-07T04:08:38.930Z,66.72
2018-02-07T04:11:07.413Z,66.19
2018-02-07T04:13:36.008Z,66.58
2018-02-07T04:16:05.211Z,67.25
2018-02-07T04:18:34.495Z,67.30
2018-02-07T04:21:02.960Z,67.44
2018-02-07T04:23:31.357Z,67.55
2018-02-07T04:25:59.842Z,67.35
2018-02-07T04:28:28.350Z,66.78
2018-02-07T04:30:57.704Z,67.00
2018-02-07T04:33:26.219Z,66.67
2018-02-07T04:35:54.864Z,66.44
2018-02-07T04:38:23.410Z,66.90
2018-02-07T04:40:51.962Z,67.61
2018-02-07T04:43:20.854Z,67.88
2018-02-07T04:45:49.267Z,67.49
2018-02-07T04:48:18.482Z,67.01
2018-02-07T04:50:46.911Z,66.98
2018-02-07T04:53:15.331Z,66.84
2018-02-07T04:55:44.523Z,66.69
2018-02-07T04:58:13.175Z,67.13
2018-02-07T05:00:41.560Z,67.53
2018-02-07T05:03:09.900Z,67.95
2018-02-07T05:05:38.321Z,68.61
2018-02-07T05:08:06.695Z,68.79
2018-02-07T05:10:35.902Z,68.39
2018-02-07T05:13:05.092Z,68.14
2018-02-07T05:15:33.646Z,68.38
2018-02-07T05:18:02.051Z,68.53
2018-02-07T05:20:30.707Z,68.79
2018-02-07T05:22:59.119Z,68.96
2018-02-07T05:25:27.585Z,68.72
2018-02-07T05:27:55.996Z,68.86
2018-02-07T05:30:24.463Z,68.96
2018-02-07T05:32:52.945Z,69.10
2018-02-07T05:35:21.426Z,68.99
2018-02-07T05:37:49.972Z,69.21
2018-02-07T05:40:18.374Z,69.99
2018-02-07T05:42:47.588Z,69.40
2018-02-07T05:45:16.786Z,69.81
2018-02-07T05:47:45.217Z,69.34
2018-02-07T05:50:13.777Z,69.16
2018-02-07T05:52:42.201Z,69.08
2018-02-07T05:55:10.615Z,69.33
2018-02-07T05:57:39.093Z,69.14
2018-02-07T06:00:07.459Z,69.23
2018-02-07T06:02:36.036Z,69.88
2018-02-07T06:05:04.936Z,69.83
2018-02-07T06:07:33.431Z,69.72
2018-02-07T06:10:02.619Z,69.67
2018-02-07T06:12:31.228Z,69.35
2018-02-07T06:15:00.413Z,69.67
2018-02-07T06:17:28.897Z,69.65
2018-02-07T06:19:57.478Z,70.04
2018-02-07T06:22:25.977Z,70.69
2018-02-07T06:24:55.173Z,70.70
2018-02-07T06:27:23.751Z,70.20
2018-02-07T06:29:52.136Z,70.38
2018-02-07T06:32:20.573Z,70.29
2018-02-07T06:34:49.149Z,70.50
2018-02-07T06:37:17.571Z,70.08
2018-02-07T06:39:46.733Z,69.83
2018-02-07T06:42:15.075Z,69.68
2018-02-07T06:44:44.453Z,69.22
2018-02-07T06:47:12.800Z,69.49
2018-02-07T06:49:41.718Z,69.37
2018-02-07T06:52:10.086Z,69.01
2018-02-07T06:54:38.428Z,69.56
2018-02-07T06:57:06.781Z,69.03
2018-02-07T06:59:35.939Z,67.94
2018-02-07T07:02:04.288Z,67.93
2018-02-07T07:04:32.622Z,68.06
2018-02-07T07:07:00.962Z,67.72
2018-02-07T07:09:29.588Z,68.02
2018-02-07T07:11:58.360Z,67.64
2018-02-07T07:14:26.672Z,67.84
2018-02-07T07:16:54.996Z,67.45
2018-02-07T07:19:24.144Z,67.36
2018-02-07T07:21:53.233Z,67.67
2018-02-07T07:24:22.467Z,67.87
2018-02-07T07:26:50.888Z,67.81
2018-02-07T07:29:19.240Z,68.09
2018-02-07T07:31:47.596Z,67.24
2018-02-07T07:34:16.205Z,64.04
2018-02-07T07:36:44.526Z,59.62
2018-02-07T07:39:13.590Z,54.89
2018-02-07T07:41:41.924Z,51.76
2018-02-07T07:44:11.030Z,49.06
2018-02-07T07:46:39.557Z,48.43
2018-02-07T07:49:07.949Z,46.95
2018-02-07T07:51:36.266Z,44.18
2018-02-07T07:54:04.593Z,41.83
2018-02-07T07:56:33.297Z,40.37
2018-02-07T07:59:01.606Z,39.43
2018-02-07T08:01:29.930Z,38.37
2018-02-07T08:03:58.286Z,37.70
2018-02-07T08:06:26.699Z,36.52
2018-02-07T08:08:55.058Z,36.46
2018-02-07T08:11:23.443Z,35.94
2018-02-07T08:13:51.792Z,35.55
2018-02-07T08:16:20.121Z,35.25
2018-02-07T08:18:48.820Z,33.99
2018-02-07T08:21:17.148Z,33.93
2018-02-07T08:23:45.473Z,32.06
2018-02-07T08:26:14.652Z,31.54
2018-02-07T08:28:42.963Z,31.08
2018-02-07T08:31:12.155Z,30.08
2018-02-07T08:33:41.266Z,29.67
2018-02-07T08:36:10.372Z,29.20
2018-02-07T08:38:38.725Z,27.80
2018-02-07T08:41:07.901Z,26.75
2018-02-07T08:43:36.200Z,27.29
2018-02-07T08:46:05.325Z,26.96
2018-02-07T08:48:33.677Z,27.03
2018-02-07T08:51:02.016Z,26.22
2018-02-07T08:53:30.367Z,26.59
2018-02-07T08:55:58.737Z,27.07
2018-02-07T08:58:27.067Z,25.16
2018-02-07T09:00:55.431Z,24.59
2018-02-07T09:03:24.387Z,24.91
2018-02-07T09:05:52.741Z,24.75
2018-02-07T09:08:21.827Z,23.72
2018-02-07T09:10:50.179Z,23.17
2018-02-07T09:13:18.543Z,22.47
2018-02-07T09:15:46.872Z,22.33
2018-02-07T09:18:15.997Z,21.83
2018-02-07T09:20:45.092Z,22.51
2018-02-07T09:23:14.316Z,23.38
2018-02-07T09:25:43.205Z,23.39
2018-02-07T09:28:11.513Z,23.36
2018-02-07T09:30:39.861Z,21.85
2018-02-07T09:33:08.239Z,22.54
2018-02-07T09:35:36.612Z,22.22
2018-02-07T09:38:04.974Z,20.74
2018-02-07T09:40:33.840Z,19.94
2018-02-07T09:43:02.988Z,21.73
2018-02-07T09:45:31.308Z,21.07
2018-02-07T09:48:00.130Z,20.23
2018-02-07T09:50:28.476Z,19.62
2018-02-07T09:52:56.805Z,19.43
2018-02-07T09:55:25.133Z,19.68
2018-02-07T09:57:53.443Z,18.53
2018-02-07T10:00:21.744Z,18.70
2018-02-07T10:02:50.373Z,19.24
2018-02-07T10:05:18.699Z,18.36
2018-02-07T10:07:47.048Z,17.86
2018-02-07T10:10:16.421Z,17.48
2018-02-07T10:12:44.774Z,17.98
2018-02-07T10:15:13.155Z,18.74
2018-02-07T10:17:41.518Z,18.83
2018-02-07T10:20:09.836Z,18.16
2018-02-07T10:22:38.193Z,18.43
2018-02-07T10:25:06.545Z,18.71
2018-02-07T10:27:34.872Z,18.62
2018-02-07T10:30:03.220Z,17.04
2018-02-07T10:32:32.214Z,17.45
2018-02-07T10:35:00.606Z,16.06
2018-02-07T10:37:29.716Z,15.25
2018-02-07T10:39:58.152Z,16.57
2018-02-07T10:42:26.426Z,15.51
2018-02-07T10:44:54.744Z,16.01
2018-02-07T10:47:23.073Z,16.80
2018-02-07T10:49:52.196Z,16.90
2018-02-07T10:52:20.498Z,16.81
2018-02-07T10:54:49.103Z,17.09
2018-02-07T10:57:17.454Z,17.92
2018-02-07T10:59:45.804Z,22.81
2018-02-07T11:02:14.364Z,23.31
2018-02-07T11:04:42.714Z,21.48
2018-02-07T11:07:11.156Z,18.74
2018-02-07T11:09:39.501Z,18.52
2018-02-07T11:12:08.615Z,18.47
2018-02-07T11:14:37.014Z,16.40
2018-02-07T11:17:05.577Z,16.82
2018-02-07T11:19:33.911Z,15.60
2018-02-07T11:22:02.227Z,15.04
2018-02-07T11:24:30.573Z,15.42
2018-02-07T11:26:59.844Z,14.41
2018-02-07T11:29:28.248Z,14.29
2018-02-07T11:31:56.615Z,15.37
2018-02-07T11:34:24.911Z,14.75
2018-02-07T11:36:53.327Z,14.04
2018-02-07T11:39:21.945Z,14.79
2018-02-07T11:41:50.272Z,14.54
2018-02-07T11:44:19.361Z,14.79
2018-02-07T11:46:47.718Z,15.00
2018-02-07T11:49:16.098Z,13.56
2018-02-07T11:51:44.412Z,13.17
2018-02-07T11:54:13.520Z,14.25
2018-02-07T11:56:42.616Z,13.74
2018-02-07T11:59:10.966Z,14.21
2018-02-07T12:01:39.376Z,14.22
2018-02-07T12:04:07.686Z,13.94
2018-02-07T12:06:36.045Z,13.80
2018-02-07T12:09:04.417Z,13.86
2018-02-07T12:11:33.537Z,13.90
2018-02-07T12:14:01.885Z,13.76
2018-02-07T12:16:31.037Z,13.41
2018-02-07T12:18:59.357Z,13.92
2018-02-07T12:21:27.701Z,14.20
2018-02-07T12:23:56.501Z,13.14
2018-02-07T12:26:24.836Z,12.87
2018-02-07T12:28:53.153Z,13.49
2018-02-07T12:31:21.499Z,13.59
2018-02-07T12:33:49.888Z,13.37
2018-02-07T12:36:18.198Z,13.40
2018-02-07T12:38:47.398Z,13.41
2018-02-07T12:41:16.521Z,13.12
2018-02-07T12:43:44.845Z,12.58
2018-02-07T12:46:13.515Z,13.30
2018-02-07T12:48:41.859Z,14.26
2018-02-07T12:51:10.953Z,13.87
2018-02-07T12:53:40.080Z,14.17
2018-02-07T12:56:08.545Z,14.44
2018-02-07T12:58:36.914Z,14.49
2018-02-07T13:01:05.266Z,14.26
2018-02-07T13:03:33.606Z,14.04
2018-02-07T13:06:01.985Z,13.54
2018-02-07T13:08:30.617Z,13.68
2018-02-07T13:10:59.021Z,14.21
2018-02-07T13:13:27.344Z,13.76
2018-02-07T13:15:55.719Z,14.37
2018-02-07T13:18:24.072Z,14.49
2018-02-07T13:20:52.491Z,15.35
2018-02-07T13:23:20.920Z,14.47
2018-02-07T13:25:49.273Z,14.30
2018-02-07T13:28:18.401Z,14.63
2018-02-07T13:30:47.417Z,14.65
2018-02-07T13:33:15.739Z,15.37
2018-02-07T13:35:44.904Z,15.71
2018-02-07T13:38:13.226Z,16.16
2018-02-07T13:40:42.309Z,16.00
2018-02-07T13:43:10.634Z,15.07
2018-02-07T13:45:39.007Z,15.22
2018-02-07T13:48:07.374Z,15.42
2018-02-07T13:50:35.684Z,14.92
2018-02-07T13:53:04.557Z,15.59
2018-02-07T13:55:32.860Z,15.53
2018-02-07T13:58:01.612Z,15.64
2018-02-07T14:00:30.144Z,16.54
2018-02-07T14:02:58.467Z,16.68
2018-02-07T14:05:26.802Z,16.77
2018-02-07T14:07:55.161Z,16.57
2018-02-07T14:10:23.511Z,16.36
2018-02-07T14:12:51.913Z,16.76
2018-02-07T14:15:20.501Z,16.40
2018-02-07T14:17:48.830Z,16.92
2018-02-07T14:20:17.944Z,17.37
2018-02-07T14:22:47.130Z,16.88
2018-02-07T14:25:15.479Z,17.00
2018-02-07T14:27:43.800Z,17.08
2018-02-07T14:30:12.584Z,17.60
2018-02-07T14:32:40.942Z,17.84
2018-02-07T14:35:10.069Z,18.40
2018-02-07T14:37:42.573Z,18.95
2018-02-07T14:40:10.912Z,19.57
2018-02-07T14:42:39.989Z,19.74
2018-02-07T14:45:09.155Z,18.81
2018-02-07T14:47:37.500Z,18.86
2018-02-07T14:50:05.835Z,18.75
2018-02-07T14:52:34.191Z,18.98
2018-02-07T14:55:02.512Z,19.76
2018-02-07T14:57:30.848Z,19.69
2018-02-07T14:59:59.726Z,19.91
2018-02-07T15:02:28.074Z,20.18
2018-02-07T15:04:57.285Z,20.84
2018-02-07T15:07:25.649Z,21.57
2018-02-07T15:09:54.755Z,21.79
2018-02-07T15:12:23.822Z,21.91
2018-02-07T15:14:52.944Z,22.07
2018-02-07T15:17:22.163Z,22.22
2018-02-07T15:19:50.489Z,22.13
2018-02-07T15:22:19.073Z,21.97
2018-02-07T15:24:47.406Z,22.27
2018-02-07T15:27:15.712Z,22.52
2018-02-07T15:29:44.092Z,23.29
2018-02-07T15:32:12.457Z,24.00
2018-02-07T15:34:40.826Z,24.60
2018-02-07T15:37:09.178Z,24.79
2018-02-07T15:39:38.297Z,24.73
2018-02-07T15:42:06.638Z,25.02
2018-02-07T15:44:35.982Z,25.09
2018-02-07T15:47:04.326Z,25.81
2018-02-07T15:49:32.699Z,26.63
2018-02-07T15:52:01.832Z,28.32
2018-02-07T15:54:30.216Z,30.40
2018-02-07T15:56:58.531Z,31.34
2018-02-07T15:59:27.662Z,32.41
2018-02-07T16:01:56.045Z,32.74
2018-02-07T16:04:24.431Z,32.99
2018-02-07T16:06:53.053Z,34.14
2018-02-07T16:09:21.415Z,34.29
2018-02-07T16:11:49.791Z,34.92
2018-02-07T16:14:18.142Z,35.30
2018-02-07T16:16:46.460Z,35.72
2018-02-07T16:19:14.792Z,36.33
2018-02-07T16:21:43.303Z,36.65
2018-02-07T16:24:11.659Z,36.91
2018-02-07T16:26:40.731Z,37.13
2018-02-07T16:29:09.364Z,37.70
2018-02-07T16:31:37.682Z,37.85
2018-02-07T16:34:06.030Z,38.75
2018-02-07T16:36:34.452Z,38.98
2018-02-07T16:39:02.763Z,39.23
2018-02-07T16:41:31.086Z,39.55
2018-02-07T16:43:59.434Z,39.90
2018-02-07T16:46:27.776Z,40.39
2018-02-07T16:48:56.874Z,40.94
2018-02-07T16:51:26.109Z,40.91
2018-02-07T16:53:54.460Z,41.24
2018-02-07T16:56:23.630Z,41.21
2018-02-07T16:58:51.971Z,41.78
2018-02-07T17:01:20.354Z,42.14
2018-02-07T17:03:48.692Z,42.52
2018-02-07T17:06:17.083Z,42.88
2018-02-07T17:08:45.483Z,42.98
2018-02-07T17:11:13.830Z,43.36
2018-02-07T17:13:43.435Z,43.75
2018-02-07T17:16:11.800Z,43.88
2018-02-07T17:18:40.114Z,43.85
2018-02-07T17:21:08.498Z,44.18
2018-02-07T17:23:36.831Z,44.32
2018-02-07T17:26:05.171Z,44.90
2018-02-07T17:28:33.508Z,44.52
2018-02-07T17:31:01.848Z,44.62
2018-02-07T17:33:30.229Z,44.86
2018-02-07T17:35:58.637Z,44.99
2018-02-07T17:38:27.765Z,45.13
2018-02-07T17:40:56.163Z,44.97
2018-02-07T17:43:24.538Z,44.92
2018-02-07T17:45:52.944Z,45.83
2018-02-07T17:48:21.261Z,45.58
2018-02-07T17:50:50.729Z,46.14
2018-02-07T17:53:19.048Z,46.16
2018-02-07T17:55:48.117Z,46.41
2018-02-07T17:58:17.114Z,46.63
2018-02-07T18:00:45.751Z,46.13
2018-02-07T18:03:14.078Z,46.81
2018-02-07T18:05:42.431Z,46.45
2018-02-07T18:08:11.508Z,46.62
2018-02-07T18:10:39.836Z,46.79
2018-02-07T18:13:08.225Z,46.85
2018-02-07T18:15:37.464Z,47.89
2018-02-07T18:18:05.819Z,47.29
2018-02-07T18:20:34.788Z,47.44
2018-02-07T18:23:03.907Z,47.91
2018-02-07T18:25:32.255Z,48.00
2018-02-07T18:28:00.595Z,48.37
2018-02-07T18:30:28.957Z,47.80
2018-02-07T18:32:57.317Z,48.18
2018-02-07T18:35:25.663Z,48.15
2018-02-07T18:37:54.006Z,47.95
2018-02-07T18:40:22.319Z,48.59
2018-02-07T18:42:51.145Z,49.55
2018-02-07T18:45:19.537Z,49.86
2018-02-07T18:47:47.889Z,50.38
2018-02-07T18:50:17.073Z,49.75
2018-02-07T18:52:45.421Z,50.03
2018-02-07T18:55:13.799Z,50.14
2018-02-07T18:57:42.210Z,49.74
2018-02-07T19:00:10.561Z,49.91
2018-02-07T19:02:38.933Z,50.54
2018-02-07T19:05:07.597Z,50.31
2018-02-07T19:07:35.981Z,51.47
2018-02-07T19:10:05.136Z,51.67
2018-02-07T19:12:33.509Z,51.86
2018-02-07T19:15:01.871Z,52.41
2018-02-07T19:17:30.197Z,53.18
2018-02-07T19:19:58.576Z,52.25
2018-02-07T19:22:26.945Z,52.14
2018-02-07T19:24:56.053Z,52.30
2018-02-07T19:27:24.704Z,52.15
2018-02-07T19:29:53.030Z,52.16
2018-02-07T19:32:21.400Z,52.03
2018-02-07T19:34:49.803Z,52.19
2018-02-07T19:37:18.161Z,52.50
2018-02-07T19:39:46.503Z,53.00
2018-02-07T19:42:15.118Z,52.61
2018-02-07T19:44:43.480Z,52.87
2018-02-07T19:47:11.832Z,52.65
2018-02-07T19:49:40.667Z,52.69
2018-02-07T19:52:09.158Z,53.04
2018-02-07T19:54:37.482Z,53.62
2018-02-07T19:57:06.579Z,54.33
2018-02-07T19:59:34.894Z,54.17
2018-02-07T20:02:04.099Z,54.41
2018-02-07T20:04:32.483Z,54.96
2018-02-07T20:07:01.092Z,54.93
2018-02-07T20:09:29.449Z,55.32
2018-02-07T20:11:58.061Z,56.04
2018-02-07T20:14:26.410Z,55.91
2018-02-07T20:16:54.721Z,56.06
2018-02-07T20:19:23.100Z,55.97
2018-02-07T20:21:51.441Z,56.64
2018-02-07T20:24:20.571Z,56.79
2018-02-07T20:26:48.984Z,57.71
2018-02-07T20:29:17.324Z,57.23
2018-02-07T20:31:45.659Z,56.94
2018-02-07T20:34:14.568Z,57.29
2018-02-07T20:36:42.892Z,57.93
2018-02-07T20:39:11.257Z,58.06
2018-02-07T20:41:39.640Z,58.25
2018-02-07T20:44:08.065Z,58.65
2018-02-07T20:46:36.424Z,57.95
2018-02-07T20:49:04.845Z,58.67
2018-02-07T20:51:33.936Z,58.66
2018-02-07T20:54:02.308Z,58.19
2018-02-07T20:56:31.582Z,58.20
2018-02-07T20:58:59.925Z,58.60
2018-02-07T21:01:28.250Z,58.75
2018-02-07T21:03:56.672Z,58.72
2018-02-07T21:06:25.081Z,59.39
2018-02-07T21:08:53.406Z,59.99
2018-02-07T21:11:22.672Z,59.14
2018-02-07T21:13:51.681Z,59.42
2018-02-07T21:16:20.112Z,59.27
2018-02-07T21:18:49.192Z,59.06
2018-02-07T21:21:17.564Z,59.04
2018-02-07T21:23:46.084Z,58.85
2018-02-07T21:26:14.434Z,59.22
2018-02-07T21:28:43.545Z,59.60
2018-02-07T21:31:11.872Z,60.92
2018-02-07T21:33:40.223Z,61.53
2018-02-07T21:36:09.374Z,61.92
2018-02-07T21:38:38.605Z,62.20
2018-02-07T21:41:07.263Z,61.91
2018-02-07T21:43:35.608Z,61.93
2018-02-07T21:46:03.954Z,62.26
2018-02-07T21:48:32.364Z,62.28
2018-02-07T21:51:00.732Z,61.39
2018-02-07T21:53:29.081Z,62.13
2018-02-07T21:55:57.482Z,62.25
2018-02-07T21:58:25.873Z,61.77
2018-02-07T22:00:54.232Z,61.91
2018-02-07T22:03:23.106Z,62.24
2018-02-07T22:05:51.473Z,61.97
2018-02-07T22:08:19.822Z,63.11
2018-02-07T22:10:48.236Z,63.50
2018-02-07T22:13:16.611Z,63.23
2018-02-07T22:15:44.993Z,63.63
2018-02-07T22:18:13.370Z,63.67
2018-02-07T22:20:41.730Z,64.03
2018-02-07T22:23:10.837Z,63.48
2018-02-07T22:25:39.732Z,63.64
2018-02-07T22:28:08.101Z,64.65
2018-02-07T22:30:37.275Z,64.45
2018-02-07T22:33:05.980Z,64.80
2018-02-07T22:35:35.158Z,65.44
2018-02-07T22:38:03.531Z,64.79
2018-02-07T22:40:31.884Z,65.02
2018-02-07T22:43:00.216Z,64.97
2018-02-07T22:45:29.337Z,65.17
2018-02-07T22:47:57.826Z,64.51
2018-02-07T22:50:26.149Z,64.79
2018-02-07T22:52:54.524Z,65.01
2018-02-07T22:55:22.903Z,64.61
2018-02-07T22:57:51.281Z,65.59
2018-02-07T23:00:19.672Z,64.78
2018-02-07T23:02:48.046Z,64.39
2018-02-07T23:05:16.592Z,64.72
2018-02-07T23:07:44.905Z,64.71
2018-02-07T23:10:13.597Z,64.60
2018-02-07T23:12:41.933Z,64.50
2018-02-07T23:15:10.302Z,64.54
2018-02-07T23:17:38.728Z,64.45
2018-02-07T23:20:07.149Z,64.92
2018-02-07T23:22:35.470Z,65.44
2018-02-07T23:25:04.655Z,65.88
2018-02-07T23:27:32.989Z,66.03
2018-02-07T23:30:01.355Z,65.63
2018-02-07T23:32:29.901Z,65.65
2018-02-07T23:34:58.231Z,66.00
2018-02-07T23:37:27.351Z,65.74
2018-02-07T23:39:55.704Z,65.69
2018-02-07T23:42:24.809Z,66.15
2018-02-07T23:44:53.901Z,65.50
2018-02-07T23:47:23.008Z,66.42
2018-02-07T23:49:52.239Z,66.39
2018-02-07T23:52:20.551Z,66.81
2018-02-07T23:54:50.227Z,66.09
2018-02-07T23:57:18.629Z,66.47
2018-02-07T23:59:46.949Z,65.83
